Kurahashi — JD2319 — position and weather

sailwx.info

Track history (hours):
 
Tides and Currents Weather Stations Pressure Air Temp Water Temp Dewpoint Dewpoint Depression Visibility Wind Speed Wind Dir Waves Ship Positions

Kurahashi

Last reported at 2018-Jan-20 00:58 UTC. Time now 2018-Jan-23 08:02 UTC.
Position N 41°51' E 141°12'.

Length 73 m; draft 4.1 m.

Type: Ship (hazmat cat C). MMSI: 431402059.

Date/timePositionNaut miles runAvg speedWind from/ knotsBaromVisibWave heightAir tempDewpointWater temp
2018-Jan-20 00:58N 41°51' E 141°12'510.1
2018-Jan-20 00:30N 41°46' E 141°11'612.1
2018-Jan-20 00:00N 41°42' E 141°05'612.7
2018-Jan-19 23:30N 41°39' E 140°57'713.6
2018-Jan-19 23:00N 41°37' E 140°49'713.8
2018-Jan-19 22:30N 41°33' E 140°41'713.6
2018-Jan-19 21:57N 41°29' E 140°33'  
2018-Jan-11 21:43N 41°51' E 141°13'311.1
2018-Jan-11 21:29N 41°49' E 141°15'510.4
2018-Jan-11 20:58N 41°44' E 141°16'510.2
2018-Jan-11 20:30N 41°39' E 141°14'3 6.7
2018-Jan-11 20:00N 41°37' E 141°17'4 8.3
2018-Jan-11 19:29N 41°33' E 141°21'5 9.6
2018-Jan-11 19:00N 41°30' E 141°25'5 8.8
2018-Jan-11 18:30N 41°27' E 141°30'910.5
2018-Jan-11 17:37N 41°18' E 141°34'1211.5
2018-Jan-11 16:37N 41°07' E 141°34'37110.2
2018-Jan-10 04:23N 35°01' E 140°12'511.4
2018-Jan-10 03:56N 34°58' E 140°06'1710.3
2018-Jan-10 02:15N 34°53' E 139°47'411.8
2018-Jan-10 01:55N 34°56' E 139°45'4 9.9
2018-Jan-10 01:30N 35°00' E 139°44'5 9.3
2018-Jan-10 00:59N 35°05' E 139°45'  
Track history (hours):
 
Tides and Currents Weather Stations Pressure Air Temp Water Temp Dewpoint Dewpoint Depression Visibility Wind Speed Wind Dir Waves Ship Positions

Kurahashi

Last reported at 2018-Jan-20 00:58 UTC. Time now 2018-Jan-23 08:02 UTC.
Position N 41°51' E 141°12'.

Length 73 m; draft 4.1 m.

Type: Ship (hazmat cat C). MMSI: 431402059.

Date/timePositionNaut miles runAvg speedWind from/ knotsBaromVisibWave heightAir tempDewpointWater temp
2018-Jan-20 00:58N 41°51' E 141°12'510.1
2018-Jan-20 00:30N 41°46' E 141°11'612.1
2018-Jan-20 00:00N 41°42' E 141°05'612.7
2018-Jan-19 23:30N 41°39' E 140°57'713.6
2018-Jan-19 23:00N 41°37' E 140°49'713.8
2018-Jan-19 22:30N 41°33' E 140°41'713.6
2018-Jan-19 21:57N 41°29' E 140°33'  
2018-Jan-11 21:43N 41°51' E 141°13'311.1
2018-Jan-11 21:29N 41°49' E 141°15'510.4
2018-Jan-11 20:58N 41°44' E 141°16'510.2
2018-Jan-11 20:30N 41°39' E 141°14'3 6.7
2018-Jan-11 20:00N 41°37' E 141°17'4 8.3
2018-Jan-11 19:29N 41°33' E 141°21'5 9.6
2018-Jan-11 19:00N 41°30' E 141°25'5 8.8
2018-Jan-11 18:30N 41°27' E 141°30'910.5
2018-Jan-11 17:37N 41°18' E 141°34'1211.5
2018-Jan-11 16:37N 41°07' E 141°34'37110.2
2018-Jan-10 04:23N 35°01' E 140°12'511.4
2018-Jan-10 03:56N 34°58' E 140°06'1710.3
2018-Jan-10 02:15N 34°53' E 139°47'411.8
2018-Jan-10 01:55N 34°56' E 139°45'4 9.9
2018-Jan-10 01:30N 35°00' E 139°44'5 9.3
2018-Jan-10 00:59N 35°05' E 139°45'  

Dump ship's entire track history